sensor_id;sensor_type;location;lat;lon;timestamp;P1;durP1;ratioP1;P2;durP2;ratioP2
25810;SDS011;13645;52.460;13.910;2023-09-12T00:01:11;18.77;;;10.98;;
25810;SDS011;13645;52.460;13.910;2023-09-12T00:03:38;12.85;;;9.98;;
25810;SDS011;13645;52.460;13.910;2023-09-12T00:06:04;14.90;;;10.23;;
25810;SDS011;13645;52.460;13.910;2023-09-12T00:08:31;13.88;;;9.82;;
25810;SDS011;13645;52.460;13.910;2023-09-12T00:11:02;16.45;;;9.48;;
25810;SDS011;13645;52.460;13.910;2023-09-12T00:13:39;14.60;;;10.35;;
25810;SDS011;13645;52.460;13.910;2023-09-12T00:16:07;18.83;;;10.35;;
25810;SDS011;13645;52.460;13.910;2023-09-12T00:18:38;13.15;;;10.25;;
25810;SDS011;13645;52.460;13.910;2023-09-12T00:21:05;14.75;;;9.13;;
25810;SDS011;13645;52.460;13.910;2023-09-12T00:23:32;11.88;;;8.85;;
25810;SDS011;13645;52.460;13.910;2023-09-12T00:25:59;13.60;;;8.48;;
25810;SDS011;13645;52.460;13.910;2023-09-12T00:28:26;13.10;;;8.88;;
25810;SDS011;13645;52.460;13.910;2023-09-12T00:30:53;9.88;;;8.02;;
25810;SDS011;13645;52.460;13.910;2023-09-12T00:33:19;13.13;;;9.07;;
25810;SDS011;13645;52.460;13.910;2023-09-12T00:35:46;13.20;;;8.88;;
25810;SDS011;13645;52.460;13.910;2023-09-12T00:38:13;18.58;;;8.77;;
25810;SDS011;13645;52.460;13.910;2023-09-12T00:40:40;15.80;;;9.60;;
25810;SDS011;13645;52.460;13.910;2023-09-12T00:43:06;14.10;;;9.50;;
25810;SDS011;13645;52.460;13.910;2023-09-12T00:45:34;12.77;;;8.90;;
25810;SDS011;13645;52.460;13.910;2023-09-12T00:48:01;16.45;;;9.82;;
25810;SDS011;13645;52.460;13.910;2023-09-12T00:50:30;14.40;;;10.27;;
25810;SDS011;13645;52.460;13.910;2023-09-12T00:52:58;11.90;;;8.63;;
25810;SDS011;13645;52.460;13.910;2023-09-12T00:55:26;16.88;;;9.18;;
25810;SDS011;13645;52.460;13.910;2023-09-12T00:57:55;15.68;;;8.45;;
25810;SDS011;13645;52.460;13.910;2023-09-12T01:00:22;12.73;;;8.50;;
25810;SDS011;13645;52.460;13.910;2023-09-12T01:02:49;19.90;;;8.98;;
25810;SDS011;13645;52.460;13.910;2023-09-12T01:05:18;15.10;;;9.18;;
25810;SDS011;13645;52.460;13.910;2023-09-12T01:07:46;13.45;;;8.82;;
25810;SDS011;13645;52.460;13.910;2023-09-12T01:10:13;14.15;;;9.43;;
25810;SDS011;13645;52.460;13.910;2023-09-12T01:12:40;12.00;;;8.55;;
25810;SDS011;13645;52.460;13.910;2023-09-12T01:15:07;12.52;;;9.27;;
25810;SDS011;13645;52.460;13.910;2023-09-12T01:17:42;12.82;;;9.25;;
25810;SDS011;13645;52.460;13.910;2023-09-12T01:20:14;12.27;;;9.95;;
25810;SDS011;13645;52.460;13.910;2023-09-12T01:28:29;17.73;;;9.10;;
25810;SDS011;13645;52.460;13.910;2023-09-12T01:31:01;12.65;;;8.82;;
25810;SDS011;13645;52.460;13.910;2023-09-12T01:33:29;13.77;;;10.10;;
25810;SDS011;13645;52.460;13.910;2023-09-12T01:35:56;11.70;;;9.82;;
25810;SDS011;13645;52.460;13.910;2023-09-12T01:38:22;11.20;;;8.13;;
25810;SDS011;13645;52.460;13.910;2023-09-12T01:40:50;10.75;;;8.23;;
25810;SDS011;13645;52.460;13.910;2023-09-12T01:43:19;13.27;;;8.60;;
25810;SDS011;13645;52.460;13.910;2023-09-12T01:45:49;10.77;;;8.70;;
25810;SDS011;13645;52.460;13.910;2023-09-12T01:48:19;14.90;;;8.38;;
25810;SDS011;13645;52.460;13.910;2023-09-12T01:50:48;8.73;;;7.82;;
25810;SDS011;13645;52.460;13.910;2023-09-12T01:53:16;10.45;;;8.95;;
25810;SDS011;13645;52.460;13.910;2023-09-12T01:55:43;13.20;;;8.75;;
25810;SDS011;13645;52.460;13.910;2023-09-12T01:58:12;12.38;;;9.27;;
25810;SDS011;13645;52.460;13.910;2023-09-12T02:00:40;11.23;;;7.18;;
25810;SDS011;13645;52.460;13.910;2023-09-12T02:03:07;8.48;;;6.13;;
25810;SDS011;13645;52.460;13.910;2023-09-12T02:05:34;8.80;;;6.90;;
25810;SDS011;13645;52.460;13.910;2023-09-12T02:08:02;7.65;;;6.72;;
25810;SDS011;13645;52.460;13.910;2023-09-12T02:10:31;6.72;;;5.82;;
25810;SDS011;13645;52.460;13.910;2023-09-12T02:12:58;5.68;;;4.97;;
25810;SDS011;13645;52.460;13.910;2023-09-12T02:15:25;5.38;;;4.20;;
25810;SDS011;13645;52.460;13.910;2023-09-12T02:17:52;3.72;;;3.42;;
25810;SDS011;13645;52.460;13.910;2023-09-12T02:20:18;5.47;;;3.40;;
25810;SDS011;13645;52.460;13.910;2023-09-12T02:22:48;8.63;;;5.28;;
25810;SDS011;13645;52.460;13.910;2023-09-12T02:25:15;7.38;;;6.60;;
25810;SDS011;13645;52.460;13.910;2023-09-12T02:27:42;7.25;;;6.40;;
25810;SDS011;13645;52.460;13.910;2023-09-12T02:30:09;3.65;;;3.20;;
25810;SDS011;13645;52.460;13.910;2023-09-12T02:32:36;6.10;;;5.50;;
25810;SDS011;13645;52.460;13.910;2023-09-12T02:35:03;5.70;;;5.20;;
25810;SDS011;13645;52.460;13.910;2023-09-12T02:37:30;7.88;;;6.22;;
25810;SDS011;13645;52.460;13.910;2023-09-12T02:39:57;13.60;;;9.55;;
25810;SDS011;13645;52.460;13.910;2023-09-12T02:42:23;14.40;;;11.05;;
25810;SDS011;13645;52.460;13.910;2023-09-12T02:44:51;12.52;;;9.48;;
25810;SDS011;13645;52.460;13.910;2023-09-12T02:47:18;13.02;;;11.30;;
25810;SDS011;13645;52.460;13.910;2023-09-12T02:49:45;12.27;;;10.38;;
25810;SDS011;13645;52.460;13.910;2023-09-12T02:52:12;11.93;;;9.60;;
25810;SDS011;13645;52.460;13.910;2023-09-12T02:54:39;8.77;;;5.95;;
25810;SDS011;13645;52.460;13.910;2023-09-12T02:57:06;7.32;;;6.35;;
25810;SDS011;13645;52.460;13.910;2023-09-12T02:59:32;8.57;;;7.65;;
25810;SDS011;13645;52.460;13.910;2023-09-12T03:01:59;8.90;;;7.43;;
25810;SDS011;13645;52.460;13.910;2023-09-12T03:04:26;8.20;;;6.82;;
25810;SDS011;13645;52.460;13.910;2023-09-12T03:46:09;11.82;;;9.60;;
25810;SDS011;13645;52.460;13.910;2023-09-12T04:13:12;6.25;;;5.43;;
25810;SDS011;13645;52.460;13.910;2023-09-12T04:25:06;4.03;;;3.53;;
25810;SDS011;13645;52.460;13.910;2023-09-12T04:31:14;7.55;;;6.30;;
25810;SDS011;13645;52.460;13.910;2023-09-12T04:33:41;9.60;;;6.80;;
25810;SDS011;13645;52.460;13.910;2023-09-12T04:41:01;13.02;;;8.05;;
25810;SDS011;13645;52.460;13.910;2023-09-12T05:00:38;10.13;;;6.95;;
25810;SDS011;13645;52.460;13.910;2023-09-12T05:04:50;9.98;;;7.45;;
25810;SDS011;13645;52.460;13.910;2023-09-12T05:12:32;9.55;;;8.55;;
25810;SDS011;13645;52.460;13.910;2023-09-12T06:45:15;19.05;;;14.23;;
25810;SDS011;13645;52.460;13.910;2023-09-12T06:56:51;20.92;;;15.25;;
25810;SDS011;13645;52.460;13.910;2023-09-12T07:01:04;17.08;;;14.32;;
25810;SDS011;13645;52.460;13.910;2023-09-12T07:12:44;14.50;;;11.85;;
25810;SDS011;13645;52.460;13.910;2023-09-12T07:44:47;15.27;;;10.02;;
25810;SDS011;13645;52.460;13.910;2023-09-12T07:47:27;11.30;;;9.27;;
25810;SDS011;13645;52.460;13.910;2023-09-12T09:10:21;13.45;;;6.30;;
25810;SDS011;13645;52.460;13.910;2023-09-12T09:13:09;13.30;;;6.18;;
25810;SDS011;13645;52.460;13.910;2023-09-12T09:15:36;12.48;;;5.93;;
25810;SDS011;13645;52.460;13.910;2023-09-12T09:18:08;14.18;;;5.82;;
25810;SDS011;13645;52.460;13.910;2023-09-12T09:20:37;17.65;;;6.00;;
25810;SDS011;13645;52.460;13.910;2023-09-12T09:23:05;12.07;;;5.70;;
25810;SDS011;13645;52.460;13.910;2023-09-12T09:25:41;13.63;;;6.10;;
25810;SDS011;13645;52.460;13.910;2023-09-12T09:28:18;11.02;;;5.47;;
25810;SDS011;13645;52.460;13.910;2023-09-12T09:30:47;16.33;;;5.88;;
25810;SDS011;13645;52.460;13.910;2023-09-12T09:33:15;17.35;;;5.40;;
25810;SDS011;13645;52.460;13.910;2023-09-12T09:35:43;19.15;;;5.80;;
25810;SDS011;13645;52.460;13.910;2023-09-12T09:38:12;10.68;;;4.80;;
25810;SDS011;13645;52.460;13.910;2023-09-12T09:40:43;15.80;;;5.07;;
25810;SDS011;13645;52.460;13.910;2023-09-12T09:43:10;16.65;;;5.65;;
25810;SDS011;13645;52.460;13.910;2023-09-12T09:45:46;10.75;;;5.50;;
25810;SDS011;13645;52.460;13.910;2023-09-12T09:48:23;9.73;;;5.05;;
25810;SDS011;13645;52.460;13.910;2023-09-12T09:50:56;14.13;;;5.03;;
25810;SDS011;13645;52.460;13.910;2023-09-12T09:53:30;7.10;;;4.80;;
25810;SDS011;13645;52.460;13.910;2023-09-12T09:56:08;12.52;;;5.30;;
25810;SDS011;13645;52.460;13.910;2023-09-12T09:58:51;12.10;;;4.78;;
25810;SDS011;13645;52.460;13.910;2023-09-12T10:01:29;13.32;;;5.43;;
25810;SDS011;13645;52.460;13.910;2023-09-12T10:03:57;14.32;;;4.97;;
25810;SDS011;13645;52.460;13.910;2023-09-12T10:06:27;11.80;;;5.70;;
25810;SDS011;13645;52.460;13.910;2023-09-12T10:08:55;12.80;;;5.63;;
25810;SDS011;13645;52.460;13.910;2023-09-12T10:11:24;9.73;;;5.00;;
25810;SDS011;13645;52.460;13.910;2023-09-12T10:13:54;8.88;;;5.55;;
25810;SDS011;13645;52.460;13.910;2023-09-12T10:16:23;11.82;;;5.60;;
25810;SDS011;13645;52.460;13.910;2023-09-12T10:18:58;13.63;;;5.30;;
25810;SDS011;13645;52.460;13.910;2023-09-12T10:21:34;13.40;;;5.50;;
25810;SDS011;13645;52.460;13.910;2023-09-12T10:24:02;11.05;;;5.32;;
25810;SDS011;13645;52.460;13.910;2023-09-12T10:26:33;13.00;;;5.93;;
25810;SDS011;13645;52.460;13.910;2023-09-12T10:29:01;12.70;;;5.45;;
25810;SDS011;13645;52.460;13.910;2023-09-12T10:31:29;14.65;;;5.00;;
25810;SDS011;13645;52.460;13.910;2023-09-12T10:33:57;9.55;;;4.95;;
25810;SDS011;13645;52.460;13.910;2023-09-12T10:36:26;9.10;;;4.63;;
25810;SDS011;13645;52.460;13.910;2023-09-12T10:38:54;13.88;;;5.10;;
25810;SDS011;13645;52.460;13.910;2023-09-12T10:41:23;12.52;;;4.78;;
25810;SDS011;13645;52.460;13.910;2023-09-12T10:43:50;18.55;;;5.50;;
25810;SDS011;13645;52.460;13.910;2023-09-12T10:46:19;12.77;;;4.88;;
25810;SDS011;13645;52.460;13.910;2023-09-12T10:48:47;15.55;;;4.80;;
25810;SDS011;13645;52.460;13.910;2023-09-12T10:51:15;12.32;;;4.72;;
25810;SDS011;13645;52.460;13.910;2023-09-12T10:53:47;14.45;;;4.55;;
25810;SDS011;13645;52.460;13.910;2023-09-12T10:56:20;15.48;;;5.63;;
25810;SDS011;13645;52.460;13.910;2023-09-12T11:01:42;11.85;;;5.32;;
25810;SDS011;13645;52.460;13.910;2023-09-12T11:06:46;12.55;;;4.90;;
25810;SDS011;13645;52.460;13.910;2023-09-12T11:09:17;13.57;;;4.55;;
25810;SDS011;13645;52.460;13.910;2023-09-12T11:11:47;16.70;;;4.43;;
25810;SDS011;13645;52.460;13.910;2023-09-12T11:14:15;13.70;;;5.22;;
25810;SDS011;13645;52.460;13.910;2023-09-12T11:16:43;15.43;;;4.90;;
25810;SDS011;13645;52.460;13.910;2023-09-12T11:19:30;11.35;;;4.80;;
25810;SDS011;13645;52.460;13.910;2023-09-12T11:22:25;17.65;;;4.38;;
25810;SDS011;13645;52.460;13.910;2023-09-12T11:24:52;17.83;;;5.18;;
25810;SDS011;13645;52.460;13.910;2023-09-12T11:27:22;17.17;;;5.13;;
25810;SDS011;13645;52.460;13.910;2023-09-12T11:29:51;18.58;;;5.10;;
25810;SDS011;13645;52.460;13.910;2023-09-12T11:32:30;29.35;;;5.32;;
25810;SDS011;13645;52.460;13.910;2023-09-12T11:34:59;15.10;;;4.72;;
25810;SDS011;13645;52.460;13.910;2023-09-12T11:37:30;23.15;;;5.65;;
25810;SDS011;13645;52.460;13.910;2023-09-12T11:39:59;17.55;;;4.97;;
25810;SDS011;13645;52.460;13.910;2023-09-12T11:42:26;20.80;;;5.47;;
25810;SDS011;13645;52.460;13.910;2023-09-12T11:44:53;22.00;;;5.47;;
25810;SDS011;13645;52.460;13.910;2023-09-12T11:47:20;21.10;;;5.45;;
25810;SDS011;13645;52.460;13.910;2023-09-12T11:49:48;18.08;;;5.00;;
25810;SDS011;13645;52.460;13.910;2023-09-12T11:52:15;20.67;;;5.07;;
25810;SDS011;13645;52.460;13.910;2023-09-12T11:54:46;20.35;;;5.28;;
25810;SDS011;13645;52.460;13.910;2023-09-12T11:57:14;21.60;;;5.15;;
25810;SDS011;13645;52.460;13.910;2023-09-12T11:59:42;29.02;;;5.43;;
25810;SDS011;13645;52.460;13.910;2023-09-12T12:02:15;23.20;;;5.63;;
25810;SDS011;13645;52.460;13.910;2023-09-12T12:04:42;26.80;;;4.85;;
25810;SDS011;13645;52.460;13.910;2023-09-12T12:07:10;24.00;;;5.10;;
25810;SDS011;13645;52.460;13.910;2023-09-12T12:09:37;17.42;;;4.90;;
25810;SDS011;13645;52.460;13.910;2023-09-12T12:12:11;22.13;;;5.38;;
25810;SDS011;13645;52.460;13.910;2023-09-12T12:14:39;21.80;;;5.55;;
25810;SDS011;13645;52.460;13.910;2023-09-12T12:17:10;20.42;;;5.45;;
25810;SDS011;13645;52.460;13.910;2023-09-12T12:19:38;19.83;;;4.97;;
25810;SDS011;13645;52.460;13.910;2023-09-12T12:22:06;21.90;;;5.30;;
25810;SDS011;13645;52.460;13.910;2023-09-12T12:24:37;18.20;;;4.97;;
25810;SDS011;13645;52.460;13.910;2023-09-12T12:27:14;18.63;;;4.82;;
25810;SDS011;13645;52.460;13.910;2023-09-12T12:29:41;23.98;;;5.22;;
25810;SDS011;13645;52.460;13.910;2023-09-12T12:32:10;25.85;;;5.43;;
25810;SDS011;13645;52.460;13.910;2023-09-12T12:34:37;24.30;;;5.97;;
25810;SDS011;13645;52.460;13.910;2023-09-12T12:37:30;22.70;;;5.60;;
25810;SDS011;13645;52.460;13.910;2023-09-12T12:39:58;20.38;;;5.93;;
25810;SDS011;13645;52.460;13.910;2023-09-12T12:42:32;27.23;;;5.22;;
25810;SDS011;13645;52.460;13.910;2023-09-12T12:45:16;20.85;;;5.53;;
25810;SDS011;13645;52.460;13.910;2023-09-12T12:47:45;24.92;;;5.70;;
25810;SDS011;13645;52.460;13.910;2023-09-12T12:52:45;24.08;;;5.45;;
25810;SDS011;13645;52.460;13.910;2023-09-12T12:55:13;14.70;;;4.93;;
25810;SDS011;13645;52.460;13.910;2023-09-12T12:57:43;20.58;;;5.65;;
25810;SDS011;13645;52.460;13.910;2023-09-12T13:00:11;22.17;;;5.47;;
25810;SDS011;13645;52.460;13.910;2023-09-12T13:02:40;20.42;;;4.93;;
25810;SDS011;13645;52.460;13.910;2023-09-12T13:05:21;25.52;;;5.35;;
25810;SDS011;13645;52.460;13.910;2023-09-12T13:07:53;20.70;;;5.40;;
25810;SDS011;13645;52.460;13.910;2023-09-12T13:10:20;19.20;;;4.97;;
25810;SDS011;13645;52.460;13.910;2023-09-12T13:12:48;15.75;;;5.28;;
25810;SDS011;13645;52.460;13.910;2023-09-12T13:15:15;23.20;;;5.40;;
25810;SDS011;13645;52.460;13.910;2023-09-12T13:17:46;22.23;;;5.47;;
25810;SDS011;13645;52.460;13.910;2023-09-12T13:20:13;24.30;;;5.55;;
25810;SDS011;13645;52.460;13.910;2023-09-12T13:22:39;20.38;;;5.57;;
25810;SDS011;13645;52.460;13.910;2023-09-12T13:25:06;18.90;;;5.07;;
25810;SDS011;13645;52.460;13.910;2023-09-12T13:27:34;15.30;;;4.85;;
25810;SDS011;13645;52.460;13.910;2023-09-12T13:30:00;23.00;;;5.60;;
25810;SDS011;13645;52.460;13.910;2023-09-12T13:32:27;24.67;;;5.38;;
25810;SDS011;13645;52.460;13.910;2023-09-12T13:34:54;28.20;;;5.60;;
25810;SDS011;13645;52.460;13.910;2023-09-12T13:37:21;19.83;;;4.88;;
25810;SDS011;13645;52.460;13.910;2023-09-12T13:39:48;17.17;;;5.30;;
25810;SDS011;13645;52.460;13.910;2023-09-12T13:42:16;22.38;;;5.55;;
25810;SDS011;13645;52.460;13.910;2023-09-12T13:44:47;20.88;;;5.38;;
25810;SDS011;13645;52.460;13.910;2023-09-12T13:47:14;27.15;;;5.15;;
25810;SDS011;13645;52.460;13.910;2023-09-12T13:49:49;18.67;;;5.43;;
25810;SDS011;13645;52.460;13.910;2023-09-12T13:52:20;26.35;;;5.13;;
25810;SDS011;13645;52.460;13.910;2023-09-12T13:54:47;20.77;;;5.28;;
25810;SDS011;13645;52.460;13.910;2023-09-12T13:57:15;22.90;;;5.15;;
25810;SDS011;13645;52.460;13.910;2023-09-12T13:59:42;27.13;;;5.93;;
25810;SDS011;13645;52.460;13.910;2023-09-12T14:02:12;16.30;;;4.90;;
25810;SDS011;13645;52.460;13.910;2023-09-12T14:04:39;28.58;;;5.50;;
25810;SDS011;13645;52.460;13.910;2023-09-12T14:07:07;17.85;;;5.05;;
25810;SDS011;13645;52.460;13.910;2023-09-12T14:09:35;22.90;;;5.15;;
25810;SDS011;13645;52.460;13.910;2023-09-12T14:12:02;25.75;;;5.55;;
25810;SDS011;13645;52.460;13.910;2023-09-12T14:14:34;19.58;;;5.47;;
25810;SDS011;13645;52.460;13.910;2023-09-12T14:17:01;18.50;;;5.07;;
25810;SDS011;13645;52.460;13.910;2023-09-12T14:19:29;20.90;;;5.40;;
25810;SDS011;13645;52.460;13.910;2023-09-12T14:21:56;20.77;;;5.40;;
25810;SDS011;13645;52.460;13.910;2023-09-12T14:24:24;25.73;;;5.80;;
25810;SDS011;13645;52.460;13.910;2023-09-12T14:26:51;21.40;;;5.45;;
25810;SDS011;13645;52.460;13.910;2023-09-12T14:29:18;26.73;;;5.68;;
25810;SDS011;13645;52.460;13.910;2023-09-12T14:31:46;23.33;;;6.07;;
25810;SDS011;13645;52.460;13.910;2023-09-12T14:34:18;21.35;;;5.50;;
25810;SDS011;13645;52.460;13.910;2023-09-12T14:36:45;20.88;;;5.50;;
25810;SDS011;13645;52.460;13.910;2023-09-12T14:39:12;28.20;;;5.85;;
25810;SDS011;13645;52.460;13.910;2023-09-12T14:41:40;23.13;;;5.57;;
25810;SDS011;13645;52.460;13.910;2023-09-12T14:44:07;28.63;;;5.50;;
25810;SDS011;13645;52.460;13.910;2023-09-12T14:46:34;19.30;;;4.78;;
25810;SDS011;13645;52.460;13.910;2023-09-12T14:49:01;17.70;;;5.68;;
25810;SDS011;13645;52.460;13.910;2023-09-12T14:51:29;25.10;;;5.95;;
25810;SDS011;13645;52.460;13.910;2023-09-12T14:54:00;24.52;;;5.35;;
25810;SDS011;13645;52.460;13.910;2023-09-12T14:56:27;25.30;;;6.07;;
25810;SDS011;13645;52.460;13.910;2023-09-12T14:58:54;24.77;;;5.60;;
25810;SDS011;13645;52.460;13.910;2023-09-12T15:01:21;24.95;;;6.10;;
25810;SDS011;13645;52.460;13.910;2023-09-12T15:03:50;28.50;;;5.78;;
25810;SDS011;13645;52.460;13.910;2023-09-12T15:06:17;21.77;;;6.00;;
25810;SDS011;13645;52.460;13.910;2023-09-12T15:08:47;26.92;;;5.85;;
25810;SDS011;13645;52.460;13.910;2023-09-12T15:11:15;23.27;;;5.80;;
25810;SDS011;13645;52.460;13.910;2023-09-12T15:13:41;21.98;;;5.55;;
25810;SDS011;13645;52.460;13.910;2023-09-12T15:16:08;24.80;;;5.97;;
25810;SDS011;13645;52.460;13.910;2023-09-12T15:18:35;24.80;;;5.38;;
25810;SDS011;13645;52.460;13.910;2023-09-12T15:21:04;20.00;;;5.47;;
25810;SDS011;13645;52.460;13.910;2023-09-12T15:23:31;26.65;;;6.30;;
25810;SDS011;13645;52.460;13.910;2023-09-12T15:25:58;18.23;;;5.47;;
25810;SDS011;13645;52.460;13.910;2023-09-12T15:28:25;22.00;;;5.22;;
25810;SDS011;13645;52.460;13.910;2023-09-12T15:30:51;26.48;;;5.70;;
25810;SDS011;13645;52.460;13.910;2023-09-12T15:33:19;17.10;;;5.43;;
25810;SDS011;13645;52.460;13.910;2023-09-12T15:35:48;22.83;;;5.85;;
25810;SDS011;13645;52.460;13.910;2023-09-12T15:38:15;25.25;;;6.30;;
25810;SDS011;13645;52.460;13.910;2023-09-12T15:40:42;21.00;;;5.18;;
25810;SDS011;13645;52.460;13.910;2023-09-12T15:43:08;28.83;;;6.05;;
25810;SDS011;13645;52.460;13.910;2023-09-12T15:45:50;24.42;;;5.70;;
25810;SDS011;13645;52.460;13.910;2023-09-12T15:48:17;18.52;;;5.38;;
25810;SDS011;13645;52.460;13.910;2023-09-12T15:50:44;15.70;;;5.38;;
25810;SDS011;13645;52.460;13.910;2023-09-12T15:53:11;28.55;;;5.93;;
25810;SDS011;13645;52.460;13.910;2023-09-12T15:55:38;17.88;;;5.50;;
25810;SDS011;13645;52.460;13.910;2023-09-12T15:58:05;21.98;;;5.65;;
25810;SDS011;13645;52.460;13.910;2023-09-12T16:00:32;17.52;;;5.40;;
25810;SDS011;13645;52.460;13.910;2023-09-12T16:02:59;21.17;;;5.63;;
25810;SDS011;13645;52.460;13.910;2023-09-12T16:05:26;33.88;;;6.18;;
25810;SDS011;13645;52.460;13.910;2023-09-12T16:07:52;24.77;;;5.63;;
25810;SDS011;13645;52.460;13.910;2023-09-12T16:10:19;26.95;;;5.43;;
25810;SDS011;13645;52.460;13.910;2023-09-12T16:12:46;19.55;;;5.63;;
25810;SDS011;13645;52.460;13.910;2023-09-12T16:15:13;20.50;;;5.22;;
25810;SDS011;13645;52.460;13.910;2023-09-12T16:17:40;23.08;;;6.05;;
25810;SDS011;13645;52.460;13.910;2023-09-12T16:20:10;19.80;;;5.97;;
25810;SDS011;13645;52.460;13.910;2023-09-12T16:22:40;21.27;;;5.45;;
25810;SDS011;13645;52.460;13.910;2023-09-12T16:25:07;23.67;;;5.57;;
25810;SDS011;13645;52.460;13.910;2023-09-12T16:27:35;12.23;;;4.38;;
25810;SDS011;13645;52.460;13.910;2023-09-12T16:30:02;8.65;;;3.63;;
25810;SDS011;13645;52.460;13.910;2023-09-12T16:32:34;10.68;;;3.88;;
25810;SDS011;13645;52.460;13.910;2023-09-12T16:35:02;6.50;;;3.60;;
25810;SDS011;13645;52.460;13.910;2023-09-12T16:37:30;10.80;;;3.92;;
25810;SDS011;13645;52.460;13.910;2023-09-12T16:39:58;12.02;;;3.47;;
25810;SDS011;13645;52.460;13.910;2023-09-12T16:42:27;9.98;;;3.55;;
25810;SDS011;13645;52.460;13.910;2023-09-12T16:44:57;10.90;;;3.08;;
25810;SDS011;13645;52.460;13.910;2023-09-12T16:47:26;11.38;;;3.38;;
25810;SDS011;13645;52.460;13.910;2023-09-12T16:49:53;9.98;;;3.08;;
25810;SDS011;13645;52.460;13.910;2023-09-12T16:52:20;17.30;;;3.28;;
25810;SDS011;13645;52.460;13.910;2023-09-12T16:54:47;6.95;;;2.97;;
25810;SDS011;13645;52.460;13.910;2023-09-12T16:57:13;6.85;;;3.00;;
25810;SDS011;13645;52.460;13.910;2023-09-12T16:59:41;11.07;;;3.03;;
25810;SDS011;13645;52.460;13.910;2023-09-12T17:02:11;7.88;;;3.17;;
25810;SDS011;13645;52.460;13.910;2023-09-12T17:04:38;10.15;;;2.67;;
25810;SDS011;13645;52.460;13.910;2023-09-12T17:07:06;11.52;;;3.15;;
25810;SDS011;13645;52.460;13.910;2023-09-12T17:09:33;8.10;;;2.78;;
25810;SDS011;13645;52.460;13.910;2023-09-12T17:12:00;6.40;;;2.80;;
25810;SDS011;13645;52.460;13.910;2023-09-12T17:14:27;8.20;;;2.92;;
25810;SDS011;13645;52.460;13.910;2023-09-12T17:16:56;7.85;;;2.85;;
25810;SDS011;13645;52.460;13.910;2023-09-12T17:19:23;7.25;;;2.90;;
25810;SDS011;13645;52.460;13.910;2023-09-12T17:21:50;4.57;;;2.88;;
25810;SDS011;13645;52.460;13.910;2023-09-12T17:24:17;3.47;;;2.72;;
25810;SDS011;13645;52.460;13.910;2023-09-12T17:26:44;9.27;;;3.05;;
25810;SDS011;13645;52.460;13.910;2023-09-12T17:29:11;5.43;;;2.50;;
25810;SDS011;13645;52.460;13.910;2023-09-12T17:31:37;5.32;;;3.00;;
25810;SDS011;13645;52.460;13.910;2023-09-12T17:34:04;4.18;;;2.70;;
25810;SDS011;13645;52.460;13.910;2023-09-12T17:36:33;3.97;;;2.95;;
25810;SDS011;13645;52.460;13.910;2023-09-12T17:39:00;6.35;;;2.90;;
25810;SDS011;13645;52.460;13.910;2023-09-12T17:41:27;5.75;;;2.60;;
25810;SDS011;13645;52.460;13.910;2023-09-12T17:43:54;7.68;;;2.95;;
25810;SDS011;13645;52.460;13.910;2023-09-12T17:46:20;4.65;;;2.58;;
25810;SDS011;13645;52.460;13.910;2023-09-12T17:48:47;4.70;;;2.55;;
25810;SDS011;13645;52.460;13.910;2023-09-12T17:51:14;8.23;;;2.65;;
25810;SDS011;13645;52.460;13.910;2023-09-12T17:53:41;7.85;;;2.88;;
25810;SDS011;13645;52.460;13.910;2023-09-12T17:56:08;4.88;;;2.50;;
25810;SDS011;13645;52.460;13.910;2023-09-12T17:58:35;7.15;;;2.63;;
25810;SDS011;13645;52.460;13.910;2023-09-12T18:01:01;8.07;;;2.80;;
25810;SDS011;13645;52.460;13.910;2023-09-12T18:03:30;8.00;;;2.90;;
25810;SDS011;13645;52.460;13.910;2023-09-12T18:05:58;6.63;;;2.58;;
25810;SDS011;13645;52.460;13.910;2023-09-12T18:08:25;4.43;;;2.65;;
25810;SDS011;13645;52.460;13.910;2023-09-12T18:10:52;5.30;;;2.60;;
25810;SDS011;13645;52.460;13.910;2023-09-12T18:13:19;5.22;;;3.05;;
25810;SDS011;13645;52.460;13.910;2023-09-12T18:15:45;4.65;;;3.00;;
25810;SDS011;13645;52.460;13.910;2023-09-12T18:18:12;8.23;;;3.05;;
25810;SDS011;13645;52.460;13.910;2023-09-12T18:20:40;7.78;;;2.90;;
25810;SDS011;13645;52.460;13.910;2023-09-12T18:23:06;10.50;;;3.08;;
25810;SDS011;13645;52.460;13.910;2023-09-12T18:25:33;9.00;;;2.90;;
25810;SDS011;13645;52.460;13.910;2023-09-12T18:28:00;7.15;;;2.92;;
25810;SDS011;13645;52.460;13.910;2023-09-12T18:30:27;8.10;;;2.50;;
25810;SDS011;13645;52.460;13.910;2023-09-12T18:32:54;6.07;;;3.10;;
25810;SDS011;13645;52.460;13.910;2023-09-12T18:35:23;8.70;;;2.90;;
25810;SDS011;13645;52.460;13.910;2023-09-12T18:37:50;4.93;;;2.83;;
25810;SDS011;13645;52.460;13.910;2023-09-12T18:40:19;5.72;;;2.80;;
25810;SDS011;13645;52.460;13.910;2023-09-12T18:42:46;5.30;;;2.72;;
25810;SDS011;13645;52.460;13.910;2023-09-12T18:45:13;6.32;;;2.78;;
25810;SDS011;13645;52.460;13.910;2023-09-12T18:47:40;6.10;;;2.72;;
25810;SDS011;13645;52.460;13.910;2023-09-12T18:50:07;7.50;;;2.53;;
25810;SDS011;13645;52.460;13.910;2023-09-12T18:52:34;4.05;;;2.72;;
25810;SDS011;13645;52.460;13.910;2023-09-12T18:55:20;5.63;;;2.75;;
25810;SDS011;13645;52.460;13.910;2023-09-12T18:57:46;5.43;;;2.72;;
25810;SDS011;13645;52.460;13.910;2023-09-12T19:00:13;5.05;;;2.55;;
25810;SDS011;13645;52.460;13.910;2023-09-12T19:02:43;5.68;;;2.72;;
25810;SDS011;13645;52.460;13.910;2023-09-12T19:05:10;8.30;;;2.90;;
25810;SDS011;13645;52.460;13.910;2023-09-12T19:07:37;4.63;;;2.53;;
25810;SDS011;13645;52.460;13.910;2023-09-12T19:10:04;3.83;;;2.70;;
25810;SDS011;13645;52.460;13.910;2023-09-12T19:12:31;5.80;;;2.75;;
25810;SDS011;13645;52.460;13.910;2023-09-12T19:14:58;8.10;;;2.70;;
25810;SDS011;13645;52.460;13.910;2023-09-12T19:17:27;3.95;;;2.72;;
25810;SDS011;13645;52.460;13.910;2023-09-12T19:19:55;7.53;;;2.70;;
25810;SDS011;13645;52.460;13.910;2023-09-12T19:22:22;4.57;;;2.78;;
25810;SDS011;13645;52.460;13.910;2023-09-12T19:24:49;5.20;;;2.80;;
25810;SDS011;13645;52.460;13.910;2023-09-12T19:27:16;4.07;;;2.60;;
25810;SDS011;13645;52.460;13.910;2023-09-12T19:29:49;3.35;;;2.55;;
25810;SDS011;13645;52.460;13.910;2023-09-12T19:32:16;4.03;;;2.72;;
25810;SDS011;13645;52.460;13.910;2023-09-12T19:34:43;8.80;;;2.92;;
25810;SDS011;13645;52.460;13.910;2023-09-12T19:37:11;9.63;;;2.78;;
25810;SDS011;13645;52.460;13.910;2023-09-12T19:39:38;4.82;;;3.03;;
25810;SDS011;13645;52.460;13.910;2023-09-12T19:42:05;3.10;;;2.55;;
25810;SDS011;13645;52.460;13.910;2023-09-12T19:44:33;3.85;;;2.60;;
25810;SDS011;13645;52.460;13.910;2023-09-12T19:46:59;8.07;;;2.40;;
25810;SDS011;13645;52.460;13.910;2023-09-12T19:49:28;7.68;;;2.45;;
25810;SDS011;13645;52.460;13.910;2023-09-12T19:51:55;4.63;;;2.45;;
25810;SDS011;13645;52.460;13.910;2023-09-12T19:54:22;9.57;;;2.63;;
25810;SDS011;13645;52.460;13.910;2023-09-12T19:56:49;3.25;;;2.70;;
25810;SDS011;13645;52.460;13.910;2023-09-12T19:59:16;4.75;;;2.70;;
25810;SDS011;13645;52.460;13.910;2023-09-12T20:01:43;4.72;;;2.60;;
25810;SDS011;13645;52.460;13.910;2023-09-12T20:04:10;6.28;;;2.70;;
25810;SDS011;13645;52.460;13.910;2023-09-12T20:06:37;4.68;;;2.60;;
25810;SDS011;13645;52.460;13.910;2023-09-12T20:09:04;5.78;;;2.40;;
25810;SDS011;13645;52.460;13.910;2023-09-12T20:11:37;3.08;;;2.45;;
25810;SDS011;13645;52.460;13.910;2023-09-12T20:14:04;6.30;;;2.30;;